createdAt,value
2023-10-20T00:03:45.063Z,10.2
2023-10-20T00:09:36.767Z,10.1
2023-10-20T00:15:28.484Z,9.9
2023-10-20T00:21:20.239Z,9.7
2023-10-20T00:27:11.887Z,9.9
2023-10-20T00:33:04.391Z,10
2023-10-20T00:38:55.727Z,9.9
2023-10-20T00:44:48.082Z,9.6
2023-10-20T00:50:40.672Z,9.7
2023-10-20T00:56:33.171Z,9.7
2023-10-20T01:02:25.108Z,9.9
2023-10-20T01:08:17.904Z,9.6
2023-10-20T01:14:10.403Z,9.3
2023-10-20T01:20:02.177Z,9.7
2023-10-20T01:25:54.475Z,9.4
2023-10-20T01:31:45.519Z,9.2
2023-10-20T01:37:37.635Z,8.9
2023-10-20T01:43:29.241Z,8.9
2023-10-20T01:49:22.319Z,8.9
2023-10-20T01:55:14.761Z,8.4
2023-10-20T02:01:06.153Z,8.4
2023-10-20T02:06:59.222Z,8.2
2023-10-20T02:12:36.168Z,8.2
2023-10-20T02:18:29.416Z,8.1
2023-10-20T02:24:21.572Z,7.8
2023-10-20T02:30:13.079Z,7.8
2023-10-20T02:36:05.806Z,7.8
2023-10-20T02:41:57.277Z,7.8
2023-10-20T02:47:49.074Z,7.6
2023-10-20T02:53:41.598Z,7.5
2023-10-20T02:59:33.693Z,7.5
2023-10-20T03:05:27.431Z,7.4
2023-10-20T03:11:19.333Z,7.1
2023-10-20T03:17:11.068Z,7.2
2023-10-20T03:23:05.664Z,7.3
2023-10-20T03:28:57.658Z,7
2023-10-20T03:34:50.268Z,7.1
2023-10-20T03:40:42.467Z,7
2023-10-20T03:46:34.580Z,7.1
2023-10-20T03:52:26.851Z,7.3
2023-10-20T03:58:19.008Z,7.1
2023-10-20T04:04:11.814Z,6.8
2023-10-20T04:09:48.284Z,6.9
2023-10-20T04:15:25.054Z,6.9
2023-10-20T04:21:04.567Z,6.6
2023-10-20T04:26:40.712Z,6.8
2023-10-20T04:32:17.257Z,7.1
2023-10-20T04:37:54.946Z,7
2023-10-20T04:43:31.845Z,7.2
2023-10-20T04:49:09.338Z,7.3
2023-10-20T04:54:46.513Z,7.3
2023-10-20T05:00:08.308Z,7.2
2023-10-20T05:05:48.179Z,7.1
2023-10-20T05:11:24.121Z,7.1
2023-10-20T05:17:00.453Z,7.2
2023-10-20T05:22:36.754Z,7.4
2023-10-20T05:28:12.563Z,7.4
2023-10-20T05:33:52.115Z,7.8
2023-10-20T05:39:12.707Z,8.1
2023-10-20T05:44:34.160Z,8.4
2023-10-20T05:49:55.592Z,8.8
2023-10-20T05:55:16.392Z,9.1
2023-10-20T06:00:43.067Z,9.3
2023-10-20T06:06:30.632Z,9.7
2023-10-20T06:11:52.612Z,10.6
2023-10-20T06:17:12.904Z,11.1
2023-10-20T06:23:03.672Z,11.7
2023-10-20T06:28:24.460Z,11.8
2023-10-20T06:33:46.657Z,12.3
2023-10-20T06:39:23.892Z,13.3
2023-10-20T06:45:00.802Z,14.1
2023-10-20T06:50:38.181Z,14.6
2023-10-20T06:57:25.951Z,14.6
2023-10-20T07:03:18.288Z,14.3
2023-10-20T07:09:09.761Z,14.3
2023-10-20T07:15:07.055Z,14.3
2023-10-20T07:20:59.768Z,14.3
2023-10-20T07:26:53.912Z,14.1
2023-10-20T07:32:52.988Z,14.1
2023-10-20T07:38:45.639Z,14.2
2023-10-20T07:44:37.964Z,14.8
2023-10-20T07:50:32.589Z,15.7
2023-10-20T07:56:08.718Z,15.9
2023-10-20T08:02:02.833Z,15.5
2023-10-20T08:08:04.772Z,15.8
2023-10-20T08:13:58.597Z,15.8
2023-10-20T08:19:52.064Z,16.7
2023-10-20T08:25:44.519Z,17.1
2023-10-20T08:31:37.467Z,18.1
2023-10-20T08:37:30.578Z,18.9
2023-10-20T08:43:30.661Z,19.8
2023-10-20T08:49:08.414Z,19.8
2023-10-20T08:54:48.638Z,20.1
2023-10-20T09:00:57.635Z,20.5
2023-10-20T09:06:55.756Z,21.2
2023-10-20T09:12:51.340Z,21.4
2023-10-20T09:18:47.029Z,21.2
2023-10-20T09:24:41.797Z,22.4
2023-10-20T09:30:10.307Z,22.6
2023-10-20T09:36:06.002Z,24.1
2023-10-20T09:41:42.713Z,23.6
2023-10-20T09:47:48.104Z,23
2023-10-20T09:53:45.134Z,22.4
2023-10-20T09:59:41.091Z,22.8
2023-10-20T10:05:35.450Z,23.1
2023-10-20T10:11:28.331Z,22.1
2023-10-20T10:17:20.629Z,21
2023-10-20T10:23:15.419Z,21
2023-10-20T10:29:21.816Z,21.5
2023-10-20T10:35:34.330Z,22.6
2023-10-20T10:41:29.300Z,22.6
2023-10-20T10:47:26.005Z,25.1
2023-10-20T10:53:26.244Z,25.9
2023-10-20T10:59:22.743Z,24.8
2023-10-20T11:05:18.156Z,25.2
2023-10-20T11:11:13.184Z,26
2023-10-20T11:17:07.320Z,27.4
2023-10-20T11:23:06.050Z,27.2
2023-10-20T11:28:58.913Z,26.8
2023-10-20T11:35:02.632Z,28.1
2023-10-20T11:40:55.087Z,27.6
2023-10-20T11:46:46.550Z,28.1
2023-10-20T11:52:42.413Z,27.5
2023-10-20T11:58:37.063Z,27.8
2023-10-20T12:04:29.547Z,27.9
2023-10-20T12:15:58.416Z,27.7
2023-10-20T12:21:51.018Z,27.9
2023-10-20T12:27:30.770Z,28.7
2023-10-20T12:33:25.086Z,28.4
2023-10-20T12:39:16.829Z,28.1
2023-10-20T12:45:09.336Z,28.3
2023-10-20T12:50:47.319Z,28.4
2023-10-20T13:13:29.463Z,27.6
2023-10-20T13:19:22.928Z,27.7
2023-10-20T13:24:59.575Z,27.6
2023-10-20T13:36:49.683Z,27.4
2023-10-20T13:42:58.122Z,27.3
2023-10-20T13:48:50.919Z,27.3
2023-10-20T13:54:43.693Z,27.4
2023-10-20T14:00:35.830Z,27.3
2023-10-20T14:06:15.685Z,27.1
2023-10-20T14:11:52.111Z,27.1
2023-10-20T14:17:28.524Z,26.9
2023-10-20T14:23:04.584Z,26.8
2023-10-20T14:28:40.502Z,26.6
2023-10-20T14:34:17.145Z,26.7
2023-10-20T14:39:53.202Z,26.6
2023-10-20T14:45:32.509Z,26.5
2023-10-20T14:51:09.780Z,26.3
2023-10-20T14:57:00.905Z,26.2
2023-10-20T15:02:38.594Z,26.1
2023-10-20T15:08:48.855Z,26.2
2023-10-20T15:14:42.022Z,25.9
2023-10-20T15:20:37.938Z,25.9
2023-10-20T15:26:41.336Z,25.6
2023-10-20T15:32:34.796Z,25.6
2023-10-20T15:38:27.343Z,25.7
2023-10-20T15:44:48.166Z,25.5
2023-10-20T15:50:40.773Z,25.2
2023-10-20T15:56:32.018Z,25.3
2023-10-20T16:02:24.927Z,25.3
2023-10-20T16:08:20.460Z,25.4
2023-10-20T16:13:55.983Z,25.3
2023-10-20T16:19:48.328Z,25.3
2023-10-20T16:25:39.520Z,25
2023-10-20T16:31:33.742Z,24.9
2023-10-20T16:37:26.013Z,25.1
2023-10-20T16:43:16.974Z,24.4
2023-10-20T16:48:38.225Z,24.4
2023-10-20T16:54:29.988Z,24.4
2023-10-20T17:00:20.878Z,24.9
2023-10-20T17:06:14.184Z,25
2023-10-20T17:11:53.108Z,25.3
2023-10-20T17:17:46.392Z,25
2023-10-20T17:23:38.302Z,25.3
2023-10-20T17:29:30.379Z,24.6
2023-10-20T17:35:23.268Z,24.5
2023-10-20T17:41:15.808Z,25
2023-10-20T17:47:11.182Z,24.5
2023-10-20T17:53:03.253Z,24.4
2023-10-20T17:58:56.261Z,24.7
2023-10-20T18:04:54.267Z,24.6
2023-10-20T18:10:51.923Z,24.5
2023-10-20T18:16:46.060Z,24.9
2023-10-20T18:22:40.055Z,24.9
2023-10-20T18:28:35.949Z,25
2023-10-20T18:34:29.092Z,24.6
2023-10-20T18:40:21.697Z,22.8
2023-10-20T18:46:01.308Z,22.3
2023-10-20T18:51:55.442Z,23.8
2023-10-20T18:57:48.158Z,23.9
2023-10-20T19:03:42.617Z,24.6
2023-10-20T19:09:20.884Z,25
2023-10-20T19:15:16.658Z,21
2023-10-20T19:21:12.144Z,20
2023-10-20T19:27:08.681Z,19.1
2023-10-20T19:33:01.471Z,19
2023-10-20T19:38:54.926Z,18.6
2023-10-20T19:44:48.363Z,18.8
2023-10-20T19:50:42.470Z,18.8
2023-10-20T19:56:34.120Z,19.2
2023-10-20T20:02:28.032Z,18.8
2023-10-20T20:08:22.647Z,19.3
2023-10-20T20:14:14.974Z,18.5
2023-10-20T20:19:55.806Z,18.4
2023-10-20T20:25:32.063Z,18.6
2023-10-20T20:31:24.708Z,18.8
2023-10-20T20:37:16.540Z,18.5
2023-10-20T20:43:09.471Z,18.4
2023-10-20T20:48:47.212Z,17.7
2023-10-20T20:54:47.380Z,17.6
2023-10-20T21:00:39.668Z,17.5
2023-10-20T21:06:20.631Z,17.1
2023-10-20T21:11:56.189Z,17.6
2023-10-20T21:17:48.318Z,16.9
2023-10-20T21:23:25.605Z,17.8
2023-10-20T21:29:01.286Z,17.9
2023-10-20T21:34:37.875Z,18.6
2023-10-20T21:40:30.922Z,19
2023-10-20T21:46:07.074Z,18.8
2023-10-20T21:51:43.647Z,19
2023-10-20T21:57:19.539Z,18.3
2023-10-20T22:03:09.167Z,17.9
2023-10-20T22:09:01.934Z,18
2023-10-20T22:20:41.300Z,17.2
2023-10-20T22:26:32.922Z,17.6
2023-10-20T22:32:27.693Z,17.3
2023-10-20T22:38:04.320Z,17.6
2023-10-20T22:43:56.786Z,17.1
2023-10-20T22:49:34.593Z,17.6
2023-10-20T22:55:28.332Z,17.7
2023-10-20T23:00:49.980Z,17.3
2023-10-20T23:06:27.464Z,16.9
2023-10-20T23:12:04.327Z,16.9
2023-10-20T23:17:56.429Z,17.2
2023-10-20T23:33:58.934Z,17.8
2023-10-20T23:39:51.585Z,17.1
2023-10-20T23:45:27.988Z,17.3
2023-10-20T23:51:05.421Z,17.3
2023-10-20T23:56:41.414Z,17.5
